Time;durP1;ratioP1;P1;durP2;ratioP2;P2;SDS_P1;SDS_P2;PMS_P1;PMS_P2;Temp;Humidity;BMP_temperature;BMP_pressure;BME280_temperature;BME280_humidity;BME280_pressure;Samples;Min_cycle;Max_cycle;Signal;HPM_P1;HPM_P2
2022/04/13 00:00:35;;;;;;;3.75;2.25;;;20.80;94.90;;;;;;4242832;28;20670;-73
2022/04/13 00:02:37;;;;;;;4.00;2.42;;;20.70;94.90;;;;;;4241554;28;20269;-73
2022/04/13 00:04:41;;;;;;;3.15;2.22;;;20.70;94.90;;;;;;4243317;28;20217;-73
2022/04/13 00:06:43;;;;;;;4.43;2.65;;;20.80;94.90;;;;;;4242492;28;20225;-73
2022/04/13 00:08:45;;;;;;;4.50;2.40;;;20.70;94.90;;;;;;4241694;28;20270;-73
2022/04/13 00:10:48;;;;;;;4.88;2.50;;;20.70;94.90;;;;;;4241817;27;20797;-73
2022/04/13 00:12:50;;;;;;;5.28;2.75;;;20.70;94.90;;;;;;4244375;27;20247;-73
2022/04/13 00:14:52;;;;;;;3.45;2.47;;;20.70;95.00;;;;;;4243245;27;20653;-72
2022/04/13 00:16:55;;;;;;;5.93;2.65;;;20.70;94.90;;;;;;4245550;27;21061;-73
2022/04/13 00:18:57;;;;;;;3.47;2.22;;;20.70;95.00;;;;;;4245625;27;20641;-73
2022/04/13 00:21:01;;;;;;;3.80;2.40;;;20.70;95.00;;;;;;4243797;27;20216;-73
2022/04/13 00:23:03;;;;;;;4.28;2.45;;;20.70;95.10;;;;;;4243448;27;20274;-72
2022/04/13 00:25:07;;;;;;;5.13;2.85;;;20.70;95.10;;;;;;4245332;27;20312;-72
2022/04/13 00:27:09;;;;;;;4.25;2.50;;;20.60;95.00;;;;;;4245199;27;20266;-73
2022/04/13 00:29:11;;;;;;;4.72;2.42;;;20.70;95.10;;;;;;4245070;27;20289;-72
2022/04/13 00:31:14;;;;;;;4.13;2.70;;;20.60;95.10;;;;;;4243634;27;20209;-72
2022/04/13 00:33:16;;;;;;;4.53;2.55;;;20.60;95.10;;;;;;4244509;27;20277;-73
2022/04/13 00:35:19;;;;;;;4.53;2.10;;;20.60;95.10;;;;;;4244334;27;20285;-73
2022/04/13 00:37:22;;;;;;;4.22;2.42;;;20.60;95.20;;;;;;4244864;27;20641;-72
2022/04/13 00:39:25;;;;;;;3.53;2.25;;;20.60;95.10;;;;;;4246010;27;20608;-72
2022/04/13 00:41:28;;;;;;;5.25;2.67;;;20.60;95.20;;;;;;4245619;27;20246;-72
2022/04/13 00:43:30;;;;;;;4.32;2.58;;;20.60;95.20;;;;;;4245995;27;20975;-73
2022/04/13 00:45:32;;;;;;;3.08;2.55;;;20.60;95.20;;;;;;4244950;27;20606;-73
2022/04/13 00:47:39;;;;;;;4.57;2.22;;;20.60;95.20;;;;;;4243942;27;20214;-73
2022/04/13 00:49:42;;;;;;;4.40;2.42;;;20.60;95.30;;;;;;4244701;27;20205;-73
2022/04/13 00:51:44;;;;;;;4.15;2.80;;;20.60;95.30;;;;;;4244877;27;20217;-73
2022/04/13 00:53:51;;;;;;;4.10;2.35;;;20.60;95.20;;;;;;4244657;27;20356;-73
2022/04/13 00:55:56;;;;;;;4.53;2.45;;;20.60;95.30;;;;;;4243752;27;20209;-72
2022/04/13 00:58:01;;;;;;;4.35;2.40;;;20.60;95.40;;;;;;4244304;27;20221;-73
2022/04/13 01:00:06;;;;;;;3.85;2.45;;;20.60;95.40;;;;;;4243866;27;20213;-72
2022/04/13 01:02:09;;;;;;;4.90;2.30;;;20.60;95.40;;;;;;4244265;27;20213;-73
2022/04/13 01:04:13;;;;;;;3.55;2.22;;;20.60;95.40;;;;;;4242517;27;20221;-73
2022/04/13 01:06:16;;;;;;;3.45;2.38;;;20.60;95.40;;;;;;4242197;27;20243;-73
2022/04/13 01:08:19;;;;;;;3.13;2.17;;;20.60;95.50;;;;;;4243491;27;20244;-73
2022/04/13 01:10:24;;;;;;;3.33;2.05;;;20.60;95.50;;;;;;4244054;27;20233;-73
2022/04/13 01:12:26;;;;;;;4.53;2.17;;;20.50;95.40;;;;;;4241691;27;20637;-73
2022/04/13 01:14:28;;;;;;;3.53;2.33;;;20.50;95.50;;;;;;4244234;27;20221;-73
2022/04/13 01:16:32;;;;;;;3.08;2.38;;;20.50;95.50;;;;;;4244338;27;20228;-73
2022/04/13 01:18:34;;;;;;;3.10;2.35;;;20.50;95.80;;;;;;4244242;27;20221;-72
2022/04/13 01:20:39;;;;;;;3.58;2.22;;;20.50;95.60;;;;;;4244119;27;20277;-73
2022/04/13 01:22:45;;;;;;;3.65;2.45;;;20.50;95.50;;;;;;4241322;27;20273;-73
2022/04/13 01:24:48;;;;;;;4.85;2.45;;;20.50;95.70;;;;;;4245147;27;20221;-73
2022/04/13 01:26:50;;;;;;;3.75;2.25;;;20.50;95.60;;;;;;4243200;27;20225;-73
2022/04/13 01:28:52;;;;;;;3.80;2.30;;;20.50;95.60;;;;;;4243574;27;20290;-73
2022/04/13 01:30:55;;;;;;;4.30;2.50;;;20.50;95.60;;;;;;4244505;27;20258;-73
2022/04/13 01:32:58;;;;;;;5.75;2.53;;;20.50;95.70;;;;;;4243589;27;20213;-73
2022/04/13 01:35:00;;;;;;;3.30;2.33;;;20.50;95.70;;;;;;4243900;27;20309;-73
2022/04/13 01:37:03;;;;;;;3.63;2.13;;;20.50;95.70;;;;;;4244952;27;20255;-72
2022/04/13 01:39:08;;;;;;;4.00;2.08;;;20.50;95.70;;;;;;4243106;27;20249;-73
2022/04/13 01:41:10;;;;;;;4.07;2.35;;;20.50;95.70;;;;;;4243960;27;20661;-72
2022/04/13 01:43:12;;;;;;;3.70;2.47;;;20.50;95.80;;;;;;4241914;27;20284;-73
2022/04/13 01:45:19;;;;;;;4.45;2.50;;;20.50;95.80;;;;;;4243492;27;20210;-73
2022/04/13 01:47:22;;;;;;;6.50;2.85;;;20.40;95.80;;;;;;4243524;27;20213;-73
2022/04/13 01:49:24;;;;;;;4.63;2.08;;;20.50;95.80;;;;;;4244219;27;20254;-72
2022/04/13 01:51:26;;;;;;;4.22;2.40;;;20.40;95.80;;;;;;4243469;27;20216;-72
2022/04/13 01:53:29;;;;;;;6.13;2.40;;;20.40;95.80;;;;;;4243895;27;20269;-73
2022/04/13 01:55:32;;;;;;;2.45;2.05;;;20.50;95.90;;;;;;4242382;27;20824;-73
2022/04/13 01:57:35;;;;;;;4.13;2.40;;;20.40;95.80;;;;;;4241700;27;20225;-72
2022/04/13 01:59:37;;;;;;;3.55;2.60;;;20.40;96.20;;;;;;4243619;27;20713;-73
2022/04/13 02:01:43;;;;;;;4.28;2.30;;;20.40;95.90;;;;;;4243606;27;20273;-73
2022/04/13 02:03:46;;;;;;;3.53;2.55;;;20.40;96.00;;;;;;4242703;27;20258;-72
2022/04/13 02:05:48;;;;;;;4.53;2.58;;;20.40;95.90;;;;;;4243565;27;20213;-73
2022/04/13 02:07:51;;;;;;;3.92;2.42;;;20.40;95.90;;;;;;4242975;27;20221;-72
2022/04/13 02:09:54;;;;;;;4.05;2.35;;;20.40;96.00;;;;;;4243396;27;20317;-73
2022/04/13 02:11:57;;;;;;;4.20;2.22;;;20.40;96.00;;;;;;4242610;27;20236;-73
2022/04/13 02:14:00;;;;;;;3.92;2.40;;;20.40;96.00;;;;;;4241237;27;20254;-72
2022/04/13 02:16:02;;;;;;;3.67;2.35;;;20.30;96.00;;;;;;4243684;27;20217;-73
2022/04/13 02:18:04;;;;;;;3.22;2.42;;;20.40;96.10;;;;;;4243219;27;20282;-73
2022/04/13 02:20:08;;;;;;;3.85;2.75;;;20.30;96.00;;;;;;4243300;27;20270;-73
2022/04/13 02:22:10;;;;;;;3.72;2.30;;;20.40;96.10;;;;;;4244360;27;20221;-73
2022/04/13 02:24:14;;;;;;;3.22;2.40;;;20.40;96.10;;;;;;4244053;27;20632;-72
2022/04/13 02:26:17;;;;;;;3.72;2.38;;;20.30;96.10;;;;;;4244159;27;20234;-72
2022/04/13 02:28:20;;;;;;;4.32;2.50;;;20.30;96.10;;;;;;4243466;27;20251;-72
2022/04/13 02:30:23;;;;;;;5.15;2.63;;;20.40;96.20;;;;;;4242086;27;20237;-72
2022/04/13 02:32:25;;;;;;;4.05;2.72;;;20.30;96.10;;;;;;4244129;27;20221;-73
2022/04/13 02:34:28;;;;;;;3.90;2.53;;;20.30;96.10;;;;;;4243719;27;20213;-73
2022/04/13 02:36:30;;;;;;;3.72;2.38;;;20.30;96.10;;;;;;4210398;28;20268;-73
2022/04/13 02:38:32;;;;;;;4.88;2.47;;;20.30;96.20;;;;;;4211279;28;20606;-73
2022/04/13 02:40:34;;;;;;;4.45;2.30;;;20.30;96.20;;;;;;4215954;28;20218;-73
2022/04/13 02:42:37;;;;;;;4.40;2.25;;;20.30;96.20;;;;;;4218002;28;20295;-73
2022/04/13 02:44:41;;;;;;;3.85;2.28;;;20.30;96.30;;;;;;4213567;28;20226;-73
2022/04/13 02:46:44;;;;;;;4.65;2.47;;;20.30;96.30;;;;;;4211082;28;20226;-72
2022/04/13 02:48:46;;;;;;;3.90;2.30;;;20.30;96.30;;;;;;4209190;28;20329;-73
2022/04/13 02:50:49;;;;;;;3.80;2.42;;;20.30;96.30;;;;;;4208096;28;20268;-73
2022/04/13 02:52:54;;;;;;;4.25;2.38;;;20.30;96.30;;;;;;4210669;28;20272;-73
2022/04/13 02:54:57;;;;;;;3.42;2.40;;;20.30;96.30;;;;;;4209718;28;20264;-72
2022/04/13 02:56:59;;;;;;;3.17;2.38;;;20.30;96.40;;;;;;4213401;28;20570;-73
2022/04/13 02:59:02;;;;;;;5.18;2.53;;;20.30;96.40;;;;;;4208804;28;20595;-72
2022/04/13 03:01:06;;;;;;;3.28;2.20;;;20.30;96.40;;;;;;4211435;28;21008;-73
2022/04/13 03:03:08;;;;;;;3.95;2.28;;;20.30;96.40;;;;;;4209923;28;20217;-72
2022/04/13 03:05:11;;;;;;;5.72;2.70;;;20.30;96.40;;;;;;4208546;28;20670;-72
2022/04/13 03:07:15;;;;;;;3.25;2.25;;;20.30;96.40;;;;;;4210669;28;20214;-72
2022/04/13 03:09:18;;;;;;;3.03;2.20;;;20.20;96.40;;;;;;4209059;28;20260;-73
2022/04/13 03:11:20;;;;;;;4.35;2.63;;;20.30;96.50;;;;;;4209070;28;20210;-73
2022/04/13 03:13:22;;;;;;;3.88;2.40;;;20.20;96.40;;;;;;4208334;28;20218;-72
2022/04/13 03:15:25;;;;;;;3.17;1.90;;;20.20;96.50;;;;;;4211705;28;20222;-72
2022/04/13 03:17:28;;;;;;;5.20;2.88;;;20.30;96.50;;;;;;4210355;28;20260;-72
2022/04/13 03:19:31;;;;;;;3.83;2.28;;;20.30;96.50;;;;;;4208736;28;20215;-72
2022/04/13 03:21:33;;;;;;;3.67;2.50;;;20.20;96.50;;;;;;4209147;28;20697;-73
2022/04/13 03:23:36;;;;;;;4.47;2.63;;;20.20;96.50;;;;;;4208084;28;20211;-73
2022/04/13 03:25:38;;;;;;;3.17;2.10;;;20.30;96.60;;;;;;4207749;28;20257;-73
2022/04/13 03:27:40;;;;;;;4.15;2.30;;;20.20;96.50;;;;;;4209167;28;20214;-73
2022/04/13 03:29:42;;;;;;;3.67;2.40;;;20.20;96.60;;;;;;4209245;28;20242;-77
2022/04/13 03:31:45;;;;;;;5.28;2.53;;;20.20;96.60;;;;;;4208749;28;20222;-77
2022/04/13 03:33:49;;;;;;;4.15;2.67;;;20.20;96.60;;;;;;4208499;28;20206;-78
2022/04/13 03:35:51;;;;;;;3.95;2.40;;;20.20;96.60;;;;;;4209519;28;20582;-77
2022/04/13 03:37:53;;;;;;;4.43;2.38;;;20.20;96.60;;;;;;4208838;28;20248;-77
2022/04/13 03:39:55;;;;;;;4.97;2.33;;;20.20;96.60;;;;;;4211643;28;20215;-77
2022/04/13 03:41:58;;;;;;;3.28;2.40;;;20.20;96.60;;;;;;4208935;28;20248;-77
2022/04/13 03:44:00;;;;;;;4.82;2.40;;;20.20;96.60;;;;;;4214476;28;20266;-77
2022/04/13 03:46:03;;;;;;;5.63;2.38;;;20.20;96.60;;;;;;4212341;28;20264;-77
2022/04/13 03:48:06;;;;;;;5.70;2.60;;;20.20;96.60;;;;;;4214761;28;20276;-77
2022/04/13 03:50:11;;;;;;;3.22;2.53;;;20.20;96.70;;;;;;4210080;28;20614;-78
2022/04/13 03:52:13;;;;;;;3.63;2.40;;;20.20;96.70;;;;;;4211560;28;20260;-76
2022/04/13 03:54:15;;;;;;;3.05;2.47;;;20.20;96.70;;;;;;4215087;28;20218;-77
2022/04/13 03:56:18;;;;;;;5.15;2.80;;;20.20;96.70;;;;;;4210170;28;20226;-77
2022/04/13 03:58:20;;;;;;;4.70;2.70;;;20.20;96.80;;;;;;4214489;28;20256;-77
2022/04/13 04:00:23;;;;;;;3.80;2.30;;;20.20;96.70;;;;;;4212989;28;20222;-77
2022/04/13 04:02:25;;;;;;;4.57;2.65;;;20.20;96.80;;;;;;4211930;28;20268;-77
2022/04/13 04:04:28;;;;;;;4.03;2.30;;;20.20;96.80;;;;;;4212113;28;20572;-77
2022/04/13 04:06:31;;;;;;;3.60;2.50;;;20.20;96.80;;;;;;4210376;28;20284;-77
2022/04/13 04:08:34;;;;;;;4.15;2.88;;;20.20;96.80;;;;;;4209430;28;20222;-77
2022/04/13 04:10:37;;;;;;;3.45;2.20;;;20.20;96.80;;;;;;4209804;28;20242;-77
2022/04/13 04:12:40;;;;;;;4.90;2.35;;;20.20;96.90;;;;;;4211622;28;20217;-77
2022/04/13 04:14:42;;;;;;;3.50;2.40;;;20.20;96.80;;;;;;4211138;28;20295;-78
2022/04/13 04:16:45;;;;;;;3.03;2.47;;;20.20;97.00;;;;;;4212096;28;20222;-77
2022/04/13 04:18:48;;;;;;;3.90;2.20;;;20.20;96.90;;;;;;4211317;28;20222;-77
2022/04/13 04:20:50;;;;;;;4.85;2.38;;;20.20;96.90;;;;;;4212297;28;20720;-77
2022/04/13 04:22:55;;;;;;;3.45;2.28;;;20.20;97.00;;;;;;4209424;28;20217;-77
2022/04/13 04:25:00;;;;;;;4.50;2.72;;;20.10;96.90;;;;;;4212214;28;20670;-77
2022/04/13 04:27:03;;;;;;;5.50;2.65;;;20.10;97.00;;;;;;4208020;28;20218;-77
2022/04/13 04:29:05;;;;;;;3.03;2.38;;;20.20;97.00;;;;;;4209690;28;20236;-77
2022/04/13 04:31:08;;;;;;;3.47;2.17;;;20.20;97.00;;;;;;4210230;28;20242;-77
2022/04/13 04:33:12;;;;;;;4.50;2.55;;;20.10;97.00;;;;;;4210924;28;21599;-77
2022/04/13 04:35:15;;;;;;;4.20;2.58;;;20.10;97.00;;;;;;4217771;28;20237;-77
2022/04/13 04:37:17;;;;;;;5.50;2.33;;;20.10;97.00;;;;;;4230481;28;20267;-77
2022/04/13 04:39:21;;;;;;;6.03;2.70;;;20.10;97.00;;;;;;4232344;28;20625;-77
2022/04/13 04:41:24;;;;;;;5.90;2.42;;;20.10;97.00;;;;;;4231738;27;20222;-77
2022/04/13 04:43:27;;;;;;;3.88;2.45;;;20.10;97.10;;;;;;4226954;28;20659;-77
2022/04/13 04:45:29;;;;;;;4.13;2.28;;;20.10;97.20;;;;;;4229803;28;20214;-77
2022/04/13 04:47:31;;;;;;;3.83;2.28;;;20.10;97.10;;;;;;4226913;28;20278;-77
2022/04/13 04:49:34;;;;;;;2.85;2.35;;;20.10;97.10;;;;;;4231113;28;20275;-77
2022/04/13 04:51:36;;;;;;;3.90;2.38;;;20.10;97.20;;;;;;4230406;28;20275;-77
2022/04/13 04:53:39;;;;;;;3.20;2.38;;;20.10;97.10;;;;;;4231135;28;20657;-77
2022/04/13 04:55:44;;;;;;;3.28;2.30;;;20.00;97.40;;;;;;4230012;28;20213;-77
2022/04/13 04:57:47;;;;;;;3.30;2.10;;;19.80;97.70;;;;;;4232147;27;20281;-77
2022/04/13 04:59:49;;;;;;;4.40;2.50;;;19.90;97.60;;;;;;4233402;27;20213;-77
2022/04/13 05:01:51;;;;;;;4.13;2.88;;;20.10;97.40;;;;;;4233380;27;20210;-78
2022/04/13 05:03:54;;;;;;;4.28;2.40;;;20.00;97.60;;;;;;4231106;27;20259;-77
2022/04/13 05:05:56;;;;;;;7.28;2.90;;;20.10;97.50;;;;;;4232586;27;20278;-77
2022/04/13 05:07:58;;;;;;;3.25;2.10;;;20.20;97.40;;;;;;4232214;27;20278;-78
2022/04/13 05:10:01;;;;;;;4.18;2.00;;;20.20;97.10;;;;;;4236003;27;20271;-77
2022/04/13 05:12:06;;;;;;;4.03;2.50;;;20.20;97.10;;;;;;4232919;27;20674;-77
2022/04/13 05:14:08;;;;;;;2.97;2.35;;;20.30;97.10;;;;;;4231044;27;20239;-77
2022/04/13 05:16:10;;;;;;;2.75;2.00;;;20.30;97.00;;;;;;4232953;27;20264;-77
2022/04/13 05:18:13;;;;;;;3.72;2.28;;;20.30;97.00;;;;;;4232873;27;20226;-72
2022/04/13 05:20:15;;;;;;;3.78;2.38;;;20.30;97.00;;;;;;4228346;27;20227;-72
2022/04/13 05:22:18;;;;;;;5.93;2.50;;;20.30;97.00;;;;;;4231582;27;20214;-73
2022/04/13 05:24:20;;;;;;;4.07;2.53;;;20.30;97.00;;;;;;4230562;27;20232;-73
2022/04/13 05:26:22;;;;;;;3.88;2.08;;;20.30;97.00;;;;;;4231351;27;20236;-73
2022/04/13 05:28:26;;;;;;;4.05;2.35;;;20.30;97.00;;;;;;4231091;27;21083;-72
2022/04/13 05:30:28;;;;;;;4.07;2.40;;;20.40;97.10;;;;;;4232092;27;20767;-72
2022/04/13 05:32:31;;;;;;;4.05;2.30;;;20.40;97.10;;;;;;4231609;27;20225;-73
2022/04/13 05:34:33;;;;;;;3.00;2.10;;;20.40;97.10;;;;;;4231982;27;20217;-72
2022/04/13 05:36:36;;;;;;;3.35;2.38;;;20.40;97.10;;;;;;4209024;28;20218;-72
2022/04/13 05:38:40;;;;;;;4.45;2.25;;;20.40;97.10;;;;;;4207897;28;20268;-72
2022/04/13 05:40:42;;;;;;;4.22;2.20;;;20.50;97.10;;;;;;4202931;28;20211;-72
2022/04/13 05:42:44;;;;;;;3.85;2.38;;;20.50;97.10;;;;;;4202541;28;20257;-72
2022/04/13 05:44:48;;;;;;;2.65;2.30;;;20.50;97.10;;;;;;4195330;28;20223;-72
2022/04/13 05:46:50;;;;;;;5.15;2.22;;;20.50;97.10;;;;;;4192469;28;20223;-73
2022/04/13 05:48:52;;;;;;;4.28;2.17;;;20.50;97.10;;;;;;4194639;28;20218;-72
2022/04/13 05:50:55;;;;;;;2.72;1.90;;;20.50;97.10;;;;;;4193965;28;20246;-72
2022/04/13 05:52:57;;;;;;;3.90;2.13;;;20.50;97.10;;;;;;4194713;28;20210;-73
2022/04/13 05:54:59;;;;;;;3.88;2.15;;;20.50;97.20;;;;;;4197077;28;20222;-73
2022/04/13 05:57:02;;;;;;;4.10;2.30;;;20.60;97.10;;;;;;4198082;28;20593;-73
2022/04/13 05:59:05;;;;;;;3.08;2.20;;;20.50;97.10;;;;;;4195004;28;20266;-72
2022/04/13 06:01:10;;;;;;;3.33;2.30;;;20.50;97.10;;;;;;4202029;28;20274;-73
2022/04/13 06:03:12;;;;;;;3.45;2.25;;;20.60;97.20;;;;;;4206193;28;20648;-72
2022/04/13 06:05:15;;;;;;;3.78;2.13;;;20.60;97.10;;;;;;4208898;28;20222;-72
2022/04/13 06:07:18;;;;;;;2.80;1.90;;;20.60;97.10;;;;;;4208362;28;20630;-72
2022/04/13 06:09:20;;;;;;;4.18;2.22;;;20.60;97.10;;;;;;4208289;28;20222;-73
2022/04/13 06:11:22;;;;;;;4.03;1.80;;;20.60;97.10;;;;;;4206641;28;20573;-72
2022/04/13 06:13:25;;;;;;;3.30;1.90;;;20.60;97.10;;;;;;4208028;28;20280;-73
2022/04/13 06:15:28;;;;;;;3.80;2.22;;;20.70;97.00;;;;;;4208420;28;20230;-72
2022/04/13 06:17:32;;;;;;;3.40;2.13;;;20.70;97.10;;;;;;4207990;28;20275;-73
2022/04/13 06:19:35;;;;;;;3.72;1.88;;;20.70;97.20;;;;;;4208287;28;20634;-73
2022/04/13 06:21:37;;;;;;;3.65;2.33;;;20.70;97.10;;;;;;4208606;28;20271;-73
2022/04/13 06:23:39;;;;;;;3.65;2.40;;;20.70;97.10;;;;;;4208653;28;20207;-72
2022/04/13 06:25:42;;;;;;;4.97;2.22;;;20.70;97.10;;;;;;4208858;28;20237;-72
2022/04/13 06:27:44;;;;;;;4.80;2.20;;;20.70;97.20;;;;;;4207530;28;20264;-72
2022/04/13 06:29:47;;;;;;;3.72;2.00;;;20.70;97.10;;;;;;4208637;28;21883;-73
2022/04/13 06:31:49;;;;;;;4.22;2.35;;;20.80;97.20;;;;;;4205750;28;20633;-72
2022/04/13 06:33:53;;;;;;;3.40;2.30;;;20.70;97.20;;;;;;4207538;28;20753;-73
2022/04/13 06:35:55;;;;;;;4.57;2.15;;;20.70;97.20;;;;;;4211645;28;20230;-73
2022/04/13 06:37:57;;;;;;;3.22;2.25;;;20.80;97.30;;;;;;4221029;27;20303;-72
2022/04/13 06:40:00;;;;;;;5.88;2.40;;;20.80;97.40;;;;;;4221098;28;20214;-72
2022/04/13 06:42:02;;;;;;;4.63;2.42;;;20.80;97.30;;;;;;4221884;28;20214;-72
2022/04/13 06:44:05;;;;;;;5.10;2.50;;;20.80;97.40;;;;;;4219288;28;21797;-72
2022/04/13 06:46:08;;;;;;;3.22;2.08;;;20.80;97.30;;;;;;4217406;28;20246;-72
2022/04/13 06:48:11;;;;;;;4.07;2.42;;;20.80;97.50;;;;;;4219058;28;20261;-72
2022/04/13 06:50:15;;;;;;;4.35;2.35;;;20.80;97.50;;;;;;4219965;28;20276;-72
2022/04/13 06:52:17;;;;;;;3.25;2.60;;;20.80;97.50;;;;;;4212108;28;20242;-72
2022/04/13 06:54:20;;;;;;;4.03;2.63;;;20.80;97.40;;;;;;4225434;28;20218;-72
2022/04/13 06:56:22;;;;;;;3.40;2.10;;;20.90;97.40;;;;;;4222779;28;20287;-73
2022/04/13 06:58:24;;;;;;;4.80;2.08;;;20.90;97.40;;;;;;4219104;28;20282;-72
2022/04/13 07:00:27;;;;;;;3.95;2.08;;;20.90;97.30;;;;;;4221730;28;20229;-72
2022/04/13 07:02:29;;;;;;;4.55;2.20;;;20.90;97.30;;;;;;4212633;28;20266;-72
2022/04/13 07:04:31;;;;;;;5.82;2.63;;;20.90;97.30;;;;;;4218867;28;20217;-72
2022/04/13 07:06:35;;;;;;;5.57;2.70;;;20.90;97.30;;;;;;4221715;28;20222;-72
2022/04/13 07:08:38;;;;;;;4.13;2.35;;;20.90;97.30;;;;;;4222471;28;20272;-72
2022/04/13 07:10:40;;;;;;;5.07;2.40;;;20.90;97.30;;;;;;4220252;28;20313;-72
2022/04/13 07:12:42;;;;;;;5.13;2.53;;;21.00;97.30;;;;;;4219053;28;20229;-72
2022/04/13 07:14:45;;;;;;;7.97;3.95;;;21.00;97.40;;;;;;4220974;28;20321;-71
2022/04/13 07:16:47;;;;;;;9.55;4.78;;;20.90;98.10;;;;;;4219525;28;20260;-72
2022/04/13 07:18:49;;;;;;;12.05;5.53;;;20.60;99.90;;;;;;4213913;28;20239;-71
2022/04/13 07:20:52;;;;;;;13.20;5.80;;;20.00;99.90;;;;;;4206925;28;20205;-71
2022/04/13 07:22:56;;;;;;;13.18;6.50;;;19.90;99.90;;;;;;4219064;28;20247;-72
2022/04/13 07:24:58;;;;;;;10.20;5.80;;;19.70;99.90;;;;;;4211707;28;20205;-71
2022/04/13 07:27:01;;;;;;;10.23;6.13;;;19.80;99.90;;;;;;4217113;28;20213;-71
2022/04/13 07:29:03;;;;;;;9.50;6.22;;;19.70;99.90;;;;;;4214213;28;20278;-71
2022/04/13 07:31:05;;;;;;;12.82;6.85;;;19.60;99.90;;;;;;4211269;27;20684;-71
2022/04/13 07:33:08;;;;;;;14.35;6.65;;;19.60;99.90;;;;;;4203694;28;20243;-72
2022/04/13 07:35:10;;;;;;;13.20;6.55;;;19.50;99.90;;;;;;4209478;27;20301;-72
2022/04/13 07:37:12;;;;;;;12.02;6.78;;;19.40;99.90;;;;;;4215652;27;20214;-72
2022/04/13 07:39:16;;;;;;;12.27;6.38;;;19.40;99.90;;;;;;4221247;27;20614;-71
2022/04/13 07:41:18;;;;;;;15.48;6.43;;;19.40;99.90;;;;;;4219808;28;20210;-71
2022/04/13 07:43:21;;;;;;;13.15;6.53;;;19.30;99.90;;;;;;4219757;27;20210;-71
2022/04/13 07:45:23;;;;;;;14.93;7.15;;;19.30;99.90;;;;;;4223548;28;20271;-72
2022/04/13 07:47:26;;;;;;;13.45;7.00;;;19.30;99.90;;;;;;4224658;27;20272;-71
2022/04/13 07:49:29;;;;;;;15.75;7.28;;;19.20;99.90;;;;;;4223428;27;20218;-72
2022/04/13 07:51:31;;;;;;;15.85;7.07;;;19.10;99.90;;;;;;4224322;28;20214;-71
2022/04/13 07:53:33;;;;;;;17.33;7.07;;;19.10;99.90;;;;;;4222330;28;20263;-71
2022/04/13 07:55:37;;;;;;;14.75;7.15;;;19.20;99.90;;;;;;4227718;28;20209;-71
2022/04/13 07:57:40;;;;;;;14.45;6.63;;;19.20;99.90;;;;;;4226162;28;20654;-71
2022/04/13 07:59:45;;;;;;;11.40;6.72;;;19.20;99.90;;;;;;4225799;27;20645;-71
2022/04/13 08:01:47;;;;;;;29.92;8.18;;;19.20;99.90;;;;;;4221523;28;20214;-72
2022/04/13 08:03:49;;;;;;;20.75;7.10;;;19.20;99.90;;;;;;4225070;28;20205;-72
2022/04/13 08:05:52;;;;;;;17.52;7.55;;;19.20;99.90;;;;;;4225998;28;20731;-71
2022/04/13 08:07:54;;;;;;;23.20;6.78;;;19.20;99.90;;;;;;4222665;28;20217;-71
2022/04/13 08:09:56;;;;;;;13.52;7.32;;;19.30;99.90;;;;;;4224835;28;20214;-71
2022/04/13 08:12:00;;;;;;;11.98;7.07;;;19.20;99.90;;;;;;4225035;28;20538;-72
2022/04/13 08:14:02;;;;;;;16.92;7.55;;;19.30;99.90;;;;;;4224259;28;20213;-72
2022/04/13 08:16:05;;;;;;;12.52;7.00;;;19.30;99.90;;;;;;4223878;28;20271;-71
2022/04/13 08:18:07;;;;;;;15.02;7.93;;;19.30;99.90;;;;;;4227115;28;20300;-72
2022/04/13 08:20:13;;;;;;;14.00;7.28;;;19.30;99.90;;;;;;4230307;28;20263;-72
2022/04/13 08:22:17;;;;;;;15.40;7.60;;;19.30;99.90;;;;;;4222411;28;20218;-71
2022/04/13 08:24:20;;;;;;;11.70;7.05;;;19.20;99.90;;;;;;4224679;28;20275;-72
2022/04/13 08:26:22;;;;;;;14.00;7.47;;;19.30;99.90;;;;;;4224779;28;20280;-72
2022/04/13 08:28:26;;;;;;;13.00;7.75;;;19.30;99.90;;;;;;4227253;28;20217;-72
2022/04/13 08:30:28;;;;;;;13.20;8.27;;;19.30;99.90;;;;;;4222332;28;20213;-71
2022/04/13 08:32:30;;;;;;;12.57;7.53;;;19.30;99.90;;;;;;4227017;28;20229;-71
2022/04/13 08:34:33;;;;;;;12.75;7.45;;;19.40;99.90;;;;;;4226650;28;20279;-71
2022/04/13 08:36:35;;;;;;;16.45;7.57;;;19.30;99.90;;;;;;4227279;28;20263;-71
2022/04/13 08:38:37;;;;;;;13.38;7.88;;;19.30;99.90;;;;;;4230325;28;20205;-72
2022/04/13 08:40:50;;;;;;;14.40;8.30;;;19.30;99.90;;;;;;4228308;27;20221;-72
2022/04/13 08:42:58;;;;;;;12.40;7.60;;;19.30;99.90;;;;;;4225425;27;21027;-71
2022/04/13 08:45:08;;;;;;;15.70;8.35;;;19.30;99.90;;;;;;4232210;27;20205;-71
2022/04/13 08:47:14;;;;;;;14.95;7.95;;;19.30;99.90;;;;;;4232461;27;20283;-72
2022/04/13 08:49:17;;;;;;;13.40;7.80;;;19.20;99.90;;;;;;4223184;27;20229;-72
2022/04/13 08:51:22;;;;;;;12.88;7.22;;;19.10;99.90;;;;;;4238628;27;20217;-73
2022/04/13 08:53:29;;;;;;;13.75;7.47;;;19.20;99.90;;;;;;4229164;27;20294;-73
2022/04/13 08:55:33;;;;;;;15.38;8.43;;;19.10;99.90;;;;;;4218475;28;20211;-73
2022/04/13 08:57:38;;;;;;;10.82;7.57;;;19.10;99.90;;;;;;4222755;27;20663;-72
2022/04/13 08:59:51;;;;;;;15.77;7.63;;;19.00;99.90;;;;;;4231253;27;20213;-72
2022/04/13 09:02:03;;;;;;;12.70;8.18;;;19.00;99.90;;;;;;4236305;27;20624;-72
2022/04/13 09:04:10;;;;;;;12.95;8.63;;;19.10;99.90;;;;;;4234337;27;20343;-72
2022/04/13 09:06:14;;;;;;;12.30;8.10;;;19.10;99.90;;;;;;4223906;27;21049;-72
2022/04/13 09:08:20;;;;;;;13.75;7.53;;;19.10;99.90;;;;;;4227427;27;20218;-72
2022/04/13 09:10:24;;;;;;;20.95;9.30;;;19.10;99.90;;;;;;4229582;28;20626;-80
2022/04/13 09:12:30;;;;;;;30.27;9.80;;;19.00;99.90;;;;;;4229199;28;20221;-79
2022/04/13 09:14:43;;;;;;;20.27;9.02;;;19.10;99.90;;;;;;4230924;28;20214;-81
2022/04/13 09:16:46;;;;;;;18.33;8.65;;;19.20;99.90;;;;;;4229027;28;20239;-72
2022/04/13 09:18:50;;;;;;;14.43;8.52;;;19.20;99.90;;;;;;4225931;28;20218;-71
2022/04/13 09:20:53;;;;;;;13.27;8.18;;;19.20;99.90;;;;;;4226824;28;20617;-74
2022/04/13 09:22:58;;;;;;;20.40;8.70;;;19.30;99.90;;;;;;4229650;28;21707;-74
2022/04/13 09:25:01;;;;;;;14.23;8.43;;;19.20;99.90;;;;;;4228123;28;20214;-74
2022/04/13 09:27:05;;;;;;;16.77;8.30;;;19.30;99.90;;;;;;4227891;28;20251;-76
2022/04/13 09:29:07;;;;;;;12.80;7.78;;;19.30;99.90;;;;;;4226501;28;20444;-73
2022/04/13 09:31:10;;;;;;;16.88;8.40;;;19.20;99.90;;;;;;4229023;28;20258;-75
2022/04/13 09:33:12;;;;;;;26.63;8.65;;;19.20;99.90;;;;;;4228682;28;20229;-74
2022/04/13 09:35:16;;;;;;;12.65;7.50;;;19.30;99.90;;;;;;4224956;28;20225;-74
2022/04/13 09:37:19;;;;;;;16.88;7.03;;;19.60;99.90;;;;;;4229308;28;20214;-75
2022/04/13 09:39:22;;;;;;;11.57;6.90;;;19.70;99.90;;;;;;4229613;27;20217;-75
2022/04/13 09:41:34;;;;;;;14.75;6.38;;;19.80;99.90;;;;;;4223493;28;20214;-75
2022/04/13 09:43:36;;;;;;;11.73;5.47;;;20.00;99.90;;;;;;4225712;28;20231;-75
2022/04/13 09:45:41;;;;;;;9.82;5.03;;;20.10;99.90;;;;;;4228182;28;20255;-74
2022/04/13 09:47:47;;;;;;;9.10;5.15;;;20.20;99.90;;;;;;4227847;28;20218;-72
2022/04/13 09:49:53;;;;;;;10.70;4.90;;;20.30;99.90;;;;;;4225095;28;20209;-73
2022/04/13 09:51:57;;;;;;;9.48;4.65;;;20.40;99.90;;;;;;4225116;27;20650;-74
2022/04/13 09:54:06;;;;;;;8.93;4.80;;;20.50;99.90;;;;;;4228962;28;21725;-74
2022/04/13 09:56:17;;;;;;;8.98;4.13;;;20.60;99.90;;;;;;4223846;28;20259;-73
2022/04/13 09:58:22;;;;;;;10.73;4.30;;;20.60;99.90;;;;;;4227943;28;20654;-75
2022/04/13 10:00:25;;;;;;;10.23;4.28;;;20.60;99.90;;;;;;4225262;27;20266;-76
2022/04/13 10:02:38;;;;;;;8.00;3.60;;;20.60;99.90;;;;;;4228364;27;20281;-75
2022/04/13 10:04:40;;;;;;;10.45;4.32;;;20.70;99.90;;;;;;4236333;27;20259;-75
2022/04/13 10:06:43;;;;;;;8.20;3.90;;;20.70;99.90;;;;;;4241289;27;20217;-75
2022/04/13 10:08:59;;;;;;;8.43;4.05;;;20.70;99.90;;;;;;4234742;27;20646;-76
2022/04/13 10:11:01;;;;;;;7.90;3.30;;;20.70;99.90;;;;;;4234632;27;20667;-74
2022/04/13 10:13:04;;;;;;;6.93;3.65;;;20.70;99.90;;;;;;4221356;27;20295;-74
2022/04/13 10:15:09;;;;;;;8.98;4.18;;;20.80;99.90;;;;;;4223724;28;20218;-74
2022/04/13 10:17:13;;;;;;;7.63;3.78;;;20.80;99.90;;;;;;4224194;28;20571;-75
2022/04/13 10:19:20;;;;;;;7.30;3.30;;;20.80;99.90;;;;;;4223658;28;20254;-76
2022/04/13 10:21:43;;;;;;;7.28;3.83;;;20.80;99.90;;;;;;4226827;28;20995;-76
2022/04/13 10:23:47;;;;;;;6.78;3.95;;;20.80;99.90;;;;;;4227935;28;20206;-76
2022/04/13 10:25:50;;;;;;;7.95;3.45;;;20.80;99.90;;;;;;4221018;28;20255;-76
2022/04/13 10:27:56;;;;;;;7.10;3.72;;;20.80;99.90;;;;;;4226589;28;20214;-76
2022/04/13 10:30:07;;;;;;;5.78;3.10;;;20.80;99.90;;;;;;4225431;28;20274;-75
2022/04/13 10:32:11;;;;;;;5.82;2.78;;;20.80;99.90;;;;;;4225169;28;20621;-75
2022/04/13 10:34:14;;;;;;;7.93;3.60;;;20.70;99.90;;;;;;4226321;28;20701;-75
2022/04/13 10:36:17;;;;;;;9.13;3.45;;;20.80;99.90;;;;;;4219485;28;20246;-76
2022/04/13 10:38:19;;;;;;;7.43;3.25;;;20.80;99.90;;;;;;4221921;28;20226;-75
2022/04/13 10:40:25;;;;;;;5.55;3.17;;;20.80;99.90;;;;;;4223290;28;20270;-75